Time,TemperatureF,DewpointF,PressureIn,WindDirection,WindDirectionDegrees,WindSpeedMPH,WindSpeedGustMPH,Humidity,HourlyPrecipIn,Conditions,Clouds,dailyrainin,SoftwareType,DateUTC
2013-11-29 00:06:00,27.0,23.1,30.40,SE,135,0.0,-999.0,85,-99.99,,,0.00,Acu-Link.com,2013-11-29 06:06:00,
2013-11-29 00:21:00,26.8,22.9,30.40,SE,135,0.0,-999.0,85,-99.99,,,0.00,Acu-Link.com,2013-11-29 06:21:00,
2013-11-29 00:36:00,26.6,22.7,30.40,SE,135,0.0,-999.0,85,-99.99,,,0.00,Acu-Link.com,2013-11-29 06:36:00,
2013-11-29 00:52:00,26.6,22.7,30.40,SE,135,0.0,-999.0,85,-99.99,,,0.00,Acu-Link.com,2013-11-29 06:52:00,
2013-11-29 01:07:00,26.4,22.5,30.40,SE,135,0.0,-999.0,85,-99.99,,,0.00,Acu-Link.com,2013-11-29 07:07:00,
2013-11-29 01:22:00,26.6,22.7,30.40,SE,135,0.0,-999.0,85,-99.99,,,0.00,Acu-Link.com,2013-11-29 07:22:00,
2013-11-29 01:37:00,26.2,22.3,30.40,SE,135,0.0,-999.0,85,-99.99,,,0.00,Acu-Link.com,2013-11-29 07:37:00,
2013-11-29 01:52:00,26.1,22.2,30.40,SE,135,0.0,-999.0,85,-99.99,,,0.00,Acu-Link.com,2013-11-29 07:52:00,
2013-11-29 02:07:00,25.9,22.0,30.40,SE,135,0.0,-999.0,85,-99.99,,,0.00,Acu-Link.com,2013-11-29 08:07:00,
2013-11-29 02:22:00,25.9,22.0,30.40,SE,135,0.0,-999.0,85,-99.99,,,0.00,Acu-Link.com,2013-11-29 08:22:00,
2013-11-29 02:37:00,25.9,22.0,30.40,SE,135,0.0,-999.0,85,-99.99,,,0.00,Acu-Link.com,2013-11-29 08:37:00,
2013-11-29 02:52:00,25.9,22.0,30.41,SE,135,0.0,-999.0,85,-99.99,,,0.00,Acu-Link.com,2013-11-29 08:52:00,
2013-11-29 03:08:00,25.9,22.0,30.41,SE,135,0.0,-999.0,85,-99.99,,,0.00,Acu-Link.com,2013-11-29 09:08:00,
2013-11-29 03:23:00,25.7,21.8,30.41,SE,135,0.0,-999.0,85,-99.99,,,0.00,Acu-Link.com,2013-11-29 09:23:00,
2013-11-29 03:38:00,25.5,21.6,30.41,SE,135,0.0,-999.0,85,-99.99,,,0.00,Acu-Link.com,2013-11-29 09:38:00,
2013-11-29 03:53:00,25.3,21.4,30.41,SE,135,0.0,-999.0,85,-99.99,,,0.00,Acu-Link.com,2013-11-29 09:53:00,
2013-11-29 04:08:00,25.3,21.4,30.42,SE,135,0.0,-999.0,85,-99.99,,,0.00,Acu-Link.com,2013-11-29 10:08:00,
2013-11-29 04:23:00,25.2,21.3,30.41,SE,135,0.0,-999.0,85,-99.99,,,0.00,Acu-Link.com,2013-11-29 10:23:00,
2013-11-29 04:38:00,25.2,21.3,30.42,SE,135,0.0,-999.0,85,-99.99,,,0.00,Acu-Link.com,2013-11-29 10:38:00,
2013-11-29 04:54:00,25.3,21.4,30.42,SE,135,0.0,-999.0,85,-99.99,,,0.00,Acu-Link.com,2013-11-29 10:54:00,
2013-11-29 05:09:00,25.2,21.3,30.42,SE,135,0.0,-999.0,85,-99.99,,,0.00,Acu-Link.com,2013-11-29 11:09:00,
2013-11-29 05:24:00,24.8,20.9,30.42,SE,135,0.0,-999.0,85,-99.99,,,0.00,Acu-Link.com,2013-11-29 11:24:00,
2013-11-29 05:39:00,24.8,20.9,30.42,SE,135,0.0,-999.0,85,-99.99,,,0.00,Acu-Link.com,2013-11-29 11:39:00,
2013-11-29 05:54:00,24.6,20.7,30.42,SE,135,0.0,-999.0,85,-99.99,,,0.00,Acu-Link.com,2013-11-29 11:54:00,
2013-11-29 06:09:00,24.4,20.6,30.43,SE,135,0.0,-999.0,85,-99.99,,,0.00,Acu-Link.com,2013-11-29 12:09:00,
2013-11-29 06:24:00,24.4,20.6,30.43,SE,135,0.0,-999.0,85,-99.99,,,0.00,Acu-Link.com,2013-11-29 12:24:00,
2013-11-29 06:39:00,24.3,20.5,30.44,SE,135,0.0,-999.0,85,-99.99,,,0.00,Acu-Link.com,2013-11-29 12:39:00,
2013-11-29 06:55:00,24.6,20.7,30.45,SE,135,0.0,-999.0,85,-99.99,,,0.00,Acu-Link.com,2013-11-29 12:55:00,
2013-11-29 07:10:00,24.4,20.6,30.45,SE,135,0.0,-999.0,85,-99.99,,,0.00,Acu-Link.com,2013-11-29 13:10:00,
2013-11-29 07:25:00,24.8,20.9,30.46,SE,135,0.0,-999.0,85,-99.99,,,0.00,Acu-Link.com,2013-11-29 13:25:00,
2013-11-29 07:40:00,27.3,23.4,30.46,SE,135,0.0,-999.0,85,-99.99,,,0.00,Acu-Link.com,2013-11-29 13:40:00,
2013-11-29 07:55:00,29.1,25.2,30.46,SE,135,0.0,-999.0,85,-99.99,,,0.00,Acu-Link.com,2013-11-29 13:55:00,
2013-11-29 08:10:00,31.5,27.5,30.46,SE,135,0.0,-999.0,85,-99.99,,,0.00,Acu-Link.com,2013-11-29 14:10:00,
2013-11-29 08:25:00,34.2,30.2,30.47,SE,135,0.0,-999.0,85,-99.99,,,0.00,Acu-Link.com,2013-11-29 14:25:00,
2013-11-29 08:41:00,36.9,32.8,30.48,SE,135,0.0,-999.0,85,-99.99,,,0.00,Acu-Link.com,2013-11-29 14:41:00,
2013-11-29 08:56:00,40.8,36.6,30.48,SE,135,0.0,-999.0,85,-99.99,,,0.00,Acu-Link.com,2013-11-29 14:56:00,
2013-11-29 09:11:00,43.2,39.0,30.48,SE,135,1.7,-999.0,85,-99.99,,,0.00,Acu-Link.com,2013-11-29 15:11:00,
2013-11-29 09:26:00,44.4,40.2,30.48,SE,135,3.2,-999.0,85,-99.99,,,0.00,Acu-Link.com,2013-11-29 15:26:00,
2013-11-29 09:41:00,44.8,40.6,30.48,SE,135,4.2,-999.0,85,-99.99,,,0.00,Acu-Link.com,2013-11-29 15:41:00,
2013-11-29 09:56:00,46.0,41.7,30.49,SSE,157,5.8,-999.0,85,-99.99,,,0.00,Acu-Link.com,2013-11-29 15:56:00,
2013-11-29 10:11:00,47.3,43.0,30.48,SW,225,3.2,-999.0,85,-99.99,,,0.00,Acu-Link.com,2013-11-29 16:11:00,
2013-11-29 10:26:00,47.8,43.5,30.49,South,180,2.7,-999.0,85,-99.99,,,0.00,Acu-Link.com,2013-11-29 16:26:00,
2013-11-29 10:41:00,50.0,45.7,30.48,SW,225,6.3,-999.0,85,-99.99,,,0.00,Acu-Link.com,2013-11-29 16:41:00,
2013-11-29 10:57:00,51.6,47.2,30.47,SW,225,6.8,-999.0,85,-99.99,,,0.00,Acu-Link.com,2013-11-29 16:57:00,
2013-11-29 11:12:00,52.0,47.6,30.46,SW,225,7.3,-999.0,85,-99.99,,,0.00,Acu-Link.com,2013-11-29 17:12:00,
2013-11-29 11:27:00,53.1,48.7,30.46,SSE,157,5.3,-999.0,85,-99.99,,,0.00,Acu-Link.com,2013-11-29 17:27:00,
2013-11-29 11:42:00,54.7,50.3,30.45,WSW,247,6.3,-999.0,85,-99.99,,,0.00,Acu-Link.com,2013-11-29 17:42:00,
2013-11-29 11:57:00,54.9,50.5,30.44,South,180,5.8,-999.0,85,-99.99,,,0.00,Acu-Link.com,2013-11-29 17:57:00,
2013-11-29 12:12:00,55.8,51.4,30.43,ESE,112,9.9,-999.0,85,-99.99,,,0.00,Acu-Link.com,2013-11-29 18:12:00,
2013-11-29 12:27:00,55.0,50.6,30.43,SE,135,4.7,-999.0,85,-99.99,,,0.00,Acu-Link.com,2013-11-29 18:27:00,
2013-11-29 12:42:00,56.1,51.7,30.42,SSE,157,5.3,-999.0,85,-99.99,,,0.00,Acu-Link.com,2013-11-29 18:42:00,
2013-11-29 12:57:00,57.0,52.5,30.41,South,180,5.3,-999.0,85,-99.99,,,0.00,Acu-Link.com,2013-11-29 18:57:00,
2013-11-29 13:13:00,57.7,53.2,30.39,South,180,4.7,-999.0,85,-99.99,,,0.00,Acu-Link.com,2013-11-29 19:13:00,
2013-11-29 13:28:00,57.9,53.4,30.39,SSW,202,5.3,-999.0,85,-99.99,,,0.00,Acu-Link.com,2013-11-29 19:28:00,
2013-11-29 13:43:00,58.1,53.6,30.37,SW,225,5.8,-999.0,85,-99.99,,,0.00,Acu-Link.com,2013-11-29 19:43:00,
2013-11-29 13:58:00,58.5,54.0,30.36,SSE,157,5.8,-999.0,85,-99.99,,,0.00,Acu-Link.com,2013-11-29 19:58:00,
2013-11-29 14:13:00,59.0,54.5,30.36,South,180,4.2,-999.0,85,-99.99,,,0.00,Acu-Link.com,2013-11-29 20:13:00,
2013-11-29 14:28:00,59.0,54.5,30.35,SSE,157,4.7,-999.0,85,-99.99,,,0.00,Acu-Link.com,2013-11-29 20:28:00,
2013-11-29 14:43:00,59.9,55.4,30.34,SE,135,5.3,-999.0,85,-99.99,,,0.00,Acu-Link.com,2013-11-29 20:43:00,
2013-11-29 14:58:00,59.9,55.4,30.34,SSW,202,4.7,-999.0,85,-99.99,,,0.00,Acu-Link.com,2013-11-29 20:58:00,
2013-11-29 15:13:00,59.4,54.9,30.33,SSE,157,5.8,-999.0,85,-99.99,,,0.00,Acu-Link.com,2013-11-29 21:13:00,
2013-11-29 15:29:00,59.2,54.7,30.32,SE,135,5.8,-999.0,85,-99.99,,,0.00,Acu-Link.com,2013-11-29 21:29:00,
2013-11-29 15:44:00,58.8,54.3,30.32,ESE,112,5.3,-999.0,85,-99.99,,,0.00,Acu-Link.com,2013-11-29 21:44:00,
2013-11-29 15:59:00,58.5,54.0,30.32,SSE,157,8.9,-999.0,85,-99.99,,,0.00,Acu-Link.com,2013-11-29 21:59:00,
2013-11-29 16:14:00,58.3,53.8,30.32,South,180,5.3,-999.0,85,-99.99,,,0.00,Acu-Link.com,2013-11-29 22:14:00,
2013-11-29 16:29:00,58.8,54.3,30.32,SE,135,3.2,-999.0,85,-99.99,,,0.00,Acu-Link.com,2013-11-29 22:29:00,
2013-11-29 16:44:00,57.9,53.4,30.32,SE,135,4.7,-999.0,85,-99.99,,,0.00,Acu-Link.com,2013-11-29 22:44:00,
2013-11-29 16:59:00,56.5,52.0,30.32,SSE,157,2.7,-999.0,85,-99.99,,,0.00,Acu-Link.com,2013-11-29 22:59:00,
2013-11-29 17:14:00,55.2,50.8,30.32,SE,135,4.2,-999.0,85,-99.99,,,0.00,Acu-Link.com,2013-11-29 23:14:00,
2013-11-29 17:29:00,53.8,49.4,30.32,SE,135,3.7,-999.0,85,-99.99,,,0.00,Acu-Link.com,2013-11-29 23:29:00,
2013-11-29 17:45:00,52.5,48.1,30.32,SE,135,2.7,-999.0,85,-99.99,,,0.00,Acu-Link.com,2013-11-29 23:45:00,
2013-11-29 18:00:00,50.5,46.2,30.32,SE,135,2.2,-999.0,85,-99.99,,,0.00,Acu-Link.com,2013-11-30 00:00:00,
2013-11-29 18:15:00,49.3,45.0,30.32,SE,135,2.7,-999.0,85,-99.99,,,0.00,Acu-Link.com,2013-11-30 00:15:00,
2013-11-29 18:30:00,48.9,44.6,30.33,SE,135,1.7,-999.0,85,-99.99,,,0.00,Acu-Link.com,2013-11-30 00:30:00,
2013-11-29 18:45:00,48.0,43.7,30.33,SE,135,1.7,-999.0,85,-99.99,,,0.00,Acu-Link.com,2013-11-30 00:45:00,
2013-11-29 19:00:00,46.9,42.6,30.33,SE,135,0.0,-999.0,85,-99.99,,,0.00,Acu-Link.com,2013-11-30 01:00:00,
2013-11-29 19:15:00,45.9,41.6,30.33,SE,135,0.0,-999.0,85,-99.99,,,0.00,Acu-Link.com,2013-11-30 01:15:00,
2013-11-29 19:30:00,44.8,40.6,30.34,SE,135,0.0,-999.0,85,-99.99,,,0.00,Acu-Link.com,2013-11-30 01:30:00,
2013-11-29 19:45:00,45.0,40.8,30.34,SE,135,1.7,-999.0,85,-99.99,,,0.00,Acu-Link.com,2013-11-30 01:45:00,
2013-11-29 20:01:00,44.2,40.0,30.33,SE,135,0.0,-999.0,85,-99.99,,,0.00,Acu-Link.com,2013-11-30 02:01:00,
2013-11-29 20:16:00,44.1,39.9,30.32,SE,135,0.0,-999.0,85,-99.99,,,0.00,Acu-Link.com,2013-11-30 02:16:00,
2013-11-29 20:31:00,46.4,42.1,30.32,SE,135,3.2,-999.0,85,-99.99,,,0.00,Acu-Link.com,2013-11-30 02:31:00,
2013-11-29 20:46:00,47.1,42.8,30.31,SE,135,2.2,-999.0,85,-99.99,,,0.00,Acu-Link.com,2013-11-30 02:46:00,
2013-11-29 21:01:00,47.3,43.0,30.31,SE,135,2.7,-999.0,85,-99.99,,,0.00,Acu-Link.com,2013-11-30 03:01:00,
2013-11-29 21:16:00,48.0,43.7,30.31,SSW,202,4.2,-999.0,85,-99.99,,,0.00,Acu-Link.com,2013-11-30 03:16:00,
2013-11-29 21:31:00,47.7,43.4,30.31,South,180,2.2,-999.0,85,-99.99,,,0.00,Acu-Link.com,2013-11-30 03:31:00,
2013-11-29 21:46:00,47.7,43.4,30.32,South,180,3.7,-999.0,85,-99.99,,,0.00,Acu-Link.com,2013-11-30 03:46:00,
2013-11-29 22:01:00,47.7,43.4,30.32,South,180,4.2,-999.0,85,-99.99,,,0.00,Acu-Link.com,2013-11-30 04:01:00,
2013-11-29 22:16:00,47.3,43.0,30.32,SSW,202,2.7,-999.0,85,-99.99,,,0.00,Acu-Link.com,2013-11-30 04:16:00,
2013-11-29 22:32:00,46.2,41.9,30.31,SSW,202,1.7,-999.0,85,-99.99,,,0.00,Acu-Link.com,2013-11-30 04:32:00,
2013-11-29 22:47:00,45.0,40.8,30.32,SSW,202,1.7,-999.0,85,-99.99,,,0.00,Acu-Link.com,2013-11-30 04:47:00,
2013-11-29 23:02:00,44.1,39.9,30.32,SSW,202,0.0,-999.0,85,-99.99,,,0.00,Acu-Link.com,2013-11-30 05:02:00,
2013-11-29 23:17:00,42.8,38.6,30.32,SSW,202,0.0,-999.0,85,-99.99,,,0.00,Acu-Link.com,2013-11-30 05:17:00,
2013-11-29 23:32:00,42.1,37.9,30.31,SSW,202,0.0,-999.0,85,-99.99,,,0.00,Acu-Link.com,2013-11-30 05:32:00,
2013-11-29 23:47:00,40.8,36.6,30.31,SSW,202,0.0,-999.0,85,-99.99,,,0.00,Acu-Link.com,2013-11-30 05:47:00,